Time;durP1;ratioP1;P1;durP2;ratioP2;P2;SDS_P1;SDS_P2;PMS_P1;PMS_P2;Temp;Humidity;BMP_temperature;BMP_pressure;BME280_temperature;BME280_humidity;BME280_pressure;Samples;Min_cycle;Max_cycle;Signal;HPM_P1;HPM_P2
2023/09/11 00:01:18;;;;;;;22.63;11.02;;;;;;;28.78;85.52;100817.00;4910329;28;66536;-38
2023/09/11 00:03:49;;;;;;;16.52;11.57;;;;;;;28.81;85.61;100825.53;4907051;28;70921;-39
2023/09/11 00:06:19;;;;;;;15.73;11.50;;;;;;;28.83;85.30;100826.13;4905945;28;66657;-40
2023/09/11 00:08:49;;;;;;;20.40;11.52;;;;;;;28.88;84.49;100839.84;4903559;28;70489;-38
2023/09/11 00:11:21;;;;;;;13.20;10.35;;;;;;;28.91;86.03;100839.41;4904943;28;65528;-36
2023/09/11 00:13:51;;;;;;;18.95;10.05;;;;;;;28.93;85.59;100842.75;4912142;28;71151;-39
2023/09/11 00:16:21;;;;;;;13.93;9.02;;;;;;;28.98;85.54;100849.41;4909608;28;66497;-38
2023/09/11 00:18:51;;;;;;;17.85;11.00;;;;;;;28.94;86.34;100839.00;4908371;28;70144;-37
2023/09/11 00:21:21;;;;;;;10.95;8.60;;;;;;;28.80;84.89;100820.31;4908568;28;65944;-37
2023/09/11 00:23:51;;;;;;;12.07;8.70;;;;;;;29.14;76.94;100843.59;4926381;28;70757;-39
2023/09/11 00:26:21;;;;;;;11.50;8.82;;;;;;;29.22;75.43;100861.47;4921161;28;66200;-37
2023/09/11 00:28:53;;;;;;;13.88;9.18;;;;;;;29.27;75.32;100870.59;4931216;28;70794;-39
2023/09/11 00:31:23;;;;;;;9.70;8.73;;;;;;;29.32;74.70;100862.69;4917721;28;65698;-37
2023/09/11 00:33:53;;;;;;;10.13;8.80;;;;;;;29.36;74.25;100869.34;4926351;28;69498;-38
2023/09/11 00:36:23;;;;;;;12.55;8.93;;;;;;;29.43;74.42;100871.22;4918023;28;66463;-37
2023/09/11 00:38:53;;;;;;;10.45;8.38;;;;;;;29.47;74.60;100875.97;4906441;28;70478;-39
2023/09/11 00:41:23;;;;;;;13.02;8.27;;;;;;;29.46;73.97;100873.50;4918173;28;65654;-37
2023/09/11 00:43:54;;;;;;;10.13;8.43;;;;;;;29.50;74.34;100870.13;4919389;28;70457;-37
2023/09/11 00:46:24;;;;;;;9.23;7.88;;;;;;;29.55;74.02;100869.50;4908023;28;66348;-37
2023/09/11 00:48:56;;;;;;;9.57;7.80;;;;;;;29.62;74.37;100890.09;4907113;28;69182;-36
2023/09/11 00:51:26;;;;;;;9.87;8.40;;;;;;;29.62;74.08;100891.97;4923896;28;66061;-36
2023/09/11 00:53:56;;;;;;;9.05;8.15;;;;;;;29.68;74.35;100899.25;4907743;28;69958;-36
2023/09/11 00:56:26;;;;;;;9.55;7.85;;;;;;;29.70;74.14;100908.00;4927039;28;66412;-37
2023/09/11 00:58:57;;;;;;;12.23;6.88;;;;;;;29.72;74.23;100911.28;4921253;28;70002;-38
2023/09/11 01:01:27;;;;;;;7.72;7.13;;;;;;;29.74;74.44;100922.72;4908059;28;66777;-36
2023/09/11 01:03:58;;;;;;;10.20;7.30;;;;;;;29.70;73.86;100924.22;4919986;28;69985;-36
2023/09/11 01:06:29;;;;;;;10.35;7.80;;;;;;;29.73;74.39;100934.59;4904488;28;65352;-35
2023/09/11 01:08:59;;;;;;;7.80;7.20;;;;;;;29.81;74.06;100953.31;4899784;28;70328;-36
2023/09/11 01:11:31;;;;;;;6.88;6.20;;;;;;;29.83;74.13;100961.19;4897653;28;66138;-36
2023/09/11 01:14:02;;;;;;;8.52;6.80;;;;;;;29.85;73.72;100959.09;4923812;28;69738;-40
2023/09/11 01:16:55;;;;;;;7.65;6.57;;;;;;;29.80;73.49;100969.72;4919883;28;65476;-37
2023/09/11 01:20:14;;;;;;;6.28;5.82;;;;;;;29.76;73.72;100977.44;4909123;28;70465;-36
2023/09/11 01:23:02;;;;;;;8.48;6.10;;;;;;;29.89;73.84;100981.16;4924596;28;66741;-37
2023/09/11 01:25:44;;;;;;;6.78;6.07;;;;;;;29.84;73.47;100981.81;4920381;28;69548;-37
2023/09/11 01:28:38;;;;;;;6.75;6.15;;;;;;;29.83;73.25;100983.66;4919211;28;65684;-37
2023/09/11 01:31:09;;;;;;;6.10;5.60;;;;;;;29.77;73.77;100952.03;4906256;28;69882;-38
2023/09/11 01:33:40;;;;;;;11.87;5.80;;;;;;;29.83;73.30;100961.19;4928852;28;66690;-35
2023/09/11 01:36:10;;;;;;;7.38;6.50;;;;;;;29.95;73.67;100974.88;4909010;28;70528;-36
2023/09/11 01:38:40;;;;;;;6.15;5.75;;;;;;;29.94;73.30;100965.13;4928279;28;66953;-35
2023/09/11 01:41:13;;;;;;;7.00;6.25;;;;;;;29.93;73.00;100966.16;4933848;28;70255;-36
2023/09/11 01:43:45;;;;;;;7.93;5.80;;;;;;;29.75;73.55;100924.38;4922786;28;66172;-36
2023/09/11 01:46:17;;;;;;;;;;;;;;;29.66;74.60;100965.38;4905126;28;70146;-36
2023/09/11 01:48:50;;;;;;;5.63;5.23;;;;;;;29.62;73.08;100909.00;4905924;28;66612;-35
2023/09/11 01:51:22;;;;;;;7.03;5.65;;;;;;;30.02;73.36;100970.31;4921105;28;70061;-36
2023/09/11 01:53:53;;;;;;;5.80;5.20;;;;;;;30.01;72.78;100963.25;4894015;28;66214;-37
2023/09/11 01:56:23;;;;;;;7.30;5.55;;;;;;;30.04;73.03;100968.22;4917293;28;71717;-37
2023/09/11 01:58:56;;;;;;;5.88;5.38;;;;;;;29.51;73.05;100879.09;4906562;28;66405;-37
2023/09/11 02:01:27;;;;;;;5.93;5.53;;;;;;;30.09;73.04;100981.94;4905218;28;70509;-36
2023/09/11 02:03:58;;;;;;;5.80;5.28;;;;;;;30.06;72.54;100971.53;4917637;28;66326;-37
2023/09/11 02:06:28;;;;;;;5.53;5.13;;;;;;;30.08;72.83;100969.44;4902882;28;70388;-35
2023/09/11 02:08:58;;;;;;;5.75;5.25;;;;;;;30.13;72.35;100983.16;4908992;28;66800;-35
2023/09/11 02:11:28;;;;;;;5.95;5.38;;;;;;;30.06;72.22;100960.69;4916088;28;69864;-35
2023/09/11 02:14:01;;;;;;;5.90;5.07;;;;;;;30.18;72.30;100980.66;4914761;28;65747;-36
2023/09/11 02:16:31;;;;;;;5.80;5.30;;;;;;;30.15;72.27;100972.97;4914368;28;69601;-35
2023/09/11 02:19:01;;;;;;;6.47;5.40;;;;;;;30.21;72.44;100988.34;4908967;28;67020;-36
2023/09/11 02:21:31;;;;;;;5.47;4.93;;;;;;;30.22;72.74;100984.63;4935664;28;70743;-36
2023/09/11 02:24:01;;;;;;;5.18;4.78;;;;;;;30.24;72.15;100974.41;4912532;28;66461;-35
2023/09/11 02:26:31;;;;;;;4.68;4.28;;;;;;;30.26;72.05;100966.94;4888330;28;70520;-35
2023/09/11 02:29:01;;;;;;;5.32;4.65;;;;;;;30.24;72.04;100963.59;4912354;28;66032;-36
2023/09/11 02:31:32;;;;;;;5.00;4.32;;;;;;;30.28;72.04;101008.13;4923095;28;70620;-36
2023/09/11 02:34:02;;;;;;;4.65;4.25;;;;;;;30.31;72.19;101014.16;4918316;28;66358;-36
2023/09/11 02:36:32;;;;;;;4.43;3.90;;;;;;;30.23;71.92;101016.06;4912157;28;70662;-37
2023/09/11 02:39:02;;;;;;;8.13;4.00;;;;;;;30.32;72.19;101034.78;4914839;28;66420;-37
2023/09/11 02:41:33;;;;;;;3.85;3.45;;;;;;;30.33;72.09;101031.00;4927298;28;70844;-37
2023/09/11 02:44:03;;;;;;;4.75;3.80;;;;;;;30.34;72.14;101027.25;4911922;28;66466;-35
2023/09/11 02:46:33;;;;;;;3.47;3.03;;;;;;;30.18;71.65;100999.59;4908214;28;70380;-35
2023/09/11 02:49:03;;;;;;;4.00;3.60;;;;;;;30.36;72.13;101019.75;4915211;28;66802;-36
2023/09/11 02:51:37;;;;;;;4.45;3.90;;;;;;;30.35;71.75;101021.63;4915073;28;70841;-36
2023/09/11 02:54:07;;;;;;;3.78;3.47;;;;;;;30.37;71.83;101016.00;4917953;28;66679;-40
2023/09/11 02:56:38;;;;;;;3.17;2.90;;;;;;;30.38;71.79;101017.69;4920990;28;70290;-36
2023/09/11 02:59:08;;;;;;;2.70;2.40;;;;;;;30.38;71.33;101017.69;4922523;28;66566;-37
2023/09/11 03:01:38;;;;;;;4.25;2.78;;;;;;;30.38;71.18;101017.69;4890073;28;69359;-36
2023/09/11 03:04:08;;;;;;;3.17;2.95;;;;;;;30.39;71.01;101013.91;4909860;28;66195;-36
2023/09/11 03:06:38;;;;;;;4.28;3.17;;;;;;;30.35;71.34;100993.75;4909596;28;70066;-36
2023/09/11 03:09:08;;;;;;;3.00;2.78;;;;;;;30.39;71.18;101003.91;4902587;28;65497;-36
2023/09/11 03:11:38;;;;;;;2.88;2.67;;;;;;;30.41;71.11;100998.31;4920152;28;69772;-37
2023/09/11 03:14:11;;;;;;;;;;;;;;;30.06;72.87;100999.44;4920479;28;66186;-36
2023/09/11 03:16:43;;;;;;;2.65;2.40;;;;;;;30.26;71.41;100985.88;4918292;28;70745;-36
2023/09/11 03:19:13;;;;;;;2.55;2.35;;;;;;;30.37;71.22;100994.34;4919291;28;65648;-36
2023/09/11 03:21:43;;;;;;;2.92;2.72;;;;;;;30.35;71.14;100985.63;4919340;28;69762;-36
2023/09/11 03:24:13;;;;;;;2.70;2.50;;;;;;;30.37;70.66;100983.50;4901313;28;66315;-37
2023/09/11 03:26:46;;;;;;;4.80;3.08;;;;;;;30.40;70.97;100983.13;4926444;28;70360;-36
2023/09/11 03:29:17;;;;;;;3.22;2.90;;;;;;;30.40;70.73;100972.28;4905073;28;65256;-36
2023/09/11 03:31:47;;;;;;;2.92;2.72;;;;;;;30.39;70.70;100966.03;4923605;28;70699;-36
2023/09/11 03:34:18;;;;;;;2.65;2.42;;;;;;;30.37;70.78;100949.19;4914948;28;65465;-37
2023/09/11 03:36:48;;;;;;;2.50;2.30;;;;;;;30.40;70.45;100950.63;4912397;28;70090;-37
2023/09/11 03:39:18;;;;;;;3.95;2.58;;;;;;;30.41;70.58;100941.47;4907938;28;66026;-35
2023/09/11 03:41:49;;;;;;;4.65;2.90;;;;;;;30.37;70.31;100935.66;4904842;28;69371;-36
2023/09/11 03:44:19;;;;;;;3.30;2.20;;;;;;;30.40;70.20;100945.22;4918923;28;66293;-36
2023/09/11 03:46:49;;;;;;;2.70;2.40;;;;;;;30.37;70.39;100945.63;4902770;28;69791;-36
2023/09/11 03:49:20;;;;;;;3.40;2.67;;;;;;;30.42;69.91;100940.41;4915987;28;66087;-36
2023/09/11 03:51:50;;;;;;;3.25;2.95;;;;;;;30.40;70.28;100935.22;4916371;28;70542;-35
2023/09/11 03:54:20;;;;;;;4.18;2.35;;;;;;;30.38;70.01;100920.25;4920966;28;68594;-38
2023/09/11 03:56:50;;;;;;;2.75;2.47;;;;;;;30.42;69.98;100927.72;4916920;28;70845;-37
2023/09/11 03:59:20;;;;;;;3.83;2.83;;;;;;;30.40;69.81;100918.97;4895352;28;66566;-35
2023/09/11 04:01:50;;;;;;;3.63;2.50;;;;;;;30.42;69.79;100924.16;4911679;28;70883;-36
2023/09/11 04:04:21;;;;;;;2.80;2.60;;;;;;;30.43;70.14;100923.13;4908696;28;66430;-37
2023/09/11 04:06:51;;;;;;;2.33;2.13;;;;;;;30.44;69.71;100919.38;4918661;28;69949;-37
2023/09/11 04:09:21;;;;;;;5.93;2.63;;;;;;;30.44;69.98;100911.25;4906836;28;66600;-35
2023/09/11 04:11:51;;;;;;;2.60;2.40;;;;;;;30.46;69.62;100909.16;4915904;28;70072;-35
2023/09/11 04:14:21;;;;;;;4.93;2.67;;;;;;;30.43;69.80;100896.06;4917858;28;65368;-34
2023/09/11 04:16:51;;;;;;;3.08;2.75;;;;;;;30.48;69.54;100898.97;4924175;28;70071;-36
2023/09/11 04:19:21;;;;;;;4.72;2.55;;;;;;;30.45;69.79;100885.84;4922306;28;66269;-36
2023/09/11 04:21:52;;;;;;;3.22;2.90;;;;;;;30.49;69.74;100887.06;4907724;28;70546;-35
2023/09/11 04:24:22;;;;;;;2.88;2.50;;;;;;;30.49;69.89;100887.91;4908576;28;66527;-36
2023/09/11 04:26:52;;;;;;;4.32;2.47;;;;;;;30.47;69.66;100878.34;4894507;28;70144;-37
2023/09/11 04:29:22;;;;;;;2.70;2.50;;;;;;;30.54;69.57;100875.59;4918109;28;66850;-37
2023/09/11 04:31:52;;;;;;;2.50;2.30;;;;;;;30.54;69.21;100876.44;4908940;28;69845;-36
2023/09/11 04:34:22;;;;;;;2.42;2.20;;;;;;;30.55;69.65;100866.44;4919221;28;66942;-35
2023/09/11 04:36:52;;;;;;;2.58;2.28;;;;;;;30.55;69.31;100856.41;4903442;28;69919;-35
2023/09/11 04:39:23;;;;;;;2.75;2.22;;;;;;;30.57;69.41;100851.63;4907633;28;66141;-35
2023/09/11 04:41:53;;;;;;;3.03;2.00;;;;;;;30.56;69.38;100847.25;4940360;28;69117;-36
2023/09/11 04:44:24;;;;;;;2.20;2.00;;;;;;;30.59;69.15;100840.56;4886862;29;65312;-36
2023/09/11 04:46:54;;;;;;;2.42;2.22;;;;;;;30.62;69.07;100845.53;4905793;28;69125;-36
2023/09/11 04:49:24;;;;;;;2.28;2.08;;;;;;;30.63;69.24;100831.78;4893540;28;66506;-38
2023/09/11 04:51:54;;;;;;;2.17;1.98;;;;;;;30.62;69.39;100827.44;4893655;28;69961;-36
2023/09/11 04:54:24;;;;;;;1.90;1.80;;;;;;;30.67;69.49;100826.75;4920981;28;66149;-37
2023/09/11 04:56:54;;;;;;;2.03;1.52;;;;;;;30.67;68.83;100822.19;4922252;28;69082;-36
2023/09/11 04:59:25;;;;;;;1.63;1.52;;;;;;;30.70;69.19;100816.34;4897794;28;64663;-36
2023/09/11 05:01:55;;;;;;;1.77;1.67;;;;;;;30.72;68.81;100803.38;4923922;28;70586;-37
2023/09/11 05:04:25;;;;;;;1.90;1.80;;;;;;;30.70;68.96;100800.09;4906711;28;66575;-36
2023/09/11 05:06:56;;;;;;;3.42;1.80;;;;;;;30.75;68.69;100801.28;4897916;28;70036;-38
2023/09/11 05:09:26;;;;;;;2.20;2.00;;;;;;;30.78;68.65;100801.66;4901159;28;66389;-38
2023/09/11 05:11:56;;;;;;;2.65;1.95;;;;;;;30.79;68.74;100789.81;4910895;28;69678;-36
2023/09/11 05:14:28;;;;;;;1.85;1.75;;;;;;;30.80;69.12;100788.78;4929544;28;65153;-36
2023/09/11 05:16:58;;;;;;;2.45;1.80;;;;;;;30.84;68.79;100772.91;4907467;28;70124;-37
2023/09/11 05:19:28;;;;;;;3.65;2.03;;;;;;;30.85;68.53;100791.66;4892142;28;65470;-38
2023/09/11 05:21:59;;;;;;;2.03;1.67;;;;;;;30.86;68.56;100773.50;4915523;28;70681;-37
2023/09/11 05:24:29;;;;;;;3.38;2.00;;;;;;;30.90;68.49;100769.31;4929571;28;65901;-36
2023/09/11 05:26:59;;;;;;;2.53;1.65;;;;;;;30.92;68.28;100767.19;4914769;28;70995;-36
2023/09/11 05:29:29;;;;;;;1.60;1.50;;;;;;;30.93;68.20;100764.28;4898339;28;66819;-36
2023/09/11 05:31:59;;;;;;;1.98;1.83;;;;;;;30.96;68.01;100754.88;4921667;28;70544;-36
2023/09/11 05:34:30;;;;;;;1.70;1.58;;;;;;;30.98;67.99;100770.91;4929514;28;66534;-36
2023/09/11 05:36:59;;;;;;;1.88;1.55;;;;;;;30.99;67.91;100765.28;4921158;28;70152;-37
2023/09/11 05:39:29;;;;;;;1.85;1.70;;;;;;;31.01;67.81;100765.88;4920628;28;66098;-37
2023/09/11 05:41:59;;;;;;;1.63;1.38;;;;;;;31.02;67.92;100753.97;4921635;28;69220;-37
2023/09/11 05:44:30;;;;;;;1.98;1.30;;;;;;;31.05;68.00;100764.38;4917275;28;66433;-39
2023/09/11 05:47:00;;;;;;;3.55;2.22;;;;;;;31.08;68.24;100768.50;4921802;28;70026;-37
2023/09/11 05:49:30;;;;;;;2.25;1.65;;;;;;;31.10;67.91;100755.56;4922243;28;66394;-38
2023/09/11 05:52:00;;;;;;;2.67;1.70;;;;;;;31.12;67.88;100758.88;4927967;28;69942;-37
2023/09/11 05:54:30;;;;;;;1.67;1.30;;;;;;;31.14;67.74;100752.16;4920599;28;66523;-37
2023/09/11 05:57:02;;;;;;;2.08;1.50;;;;;;;31.02;67.36;100721.47;4923427;28;70414;-38
2023/09/11 05:59:33;;;;;;;1.98;1.65;;;;;;;31.21;67.63;100740.47;4916545;28;65884;-37
2023/09/11 06:02:03;;;;;;;2.17;1.30;;;;;;;31.22;67.30;100752.94;4932686;28;70025;-38
2023/09/11 06:04:33;;;;;;;1.60;1.48;;;;;;;31.24;67.55;100740.00;4909181;28;65269;-36
2023/09/11 06:07:04;;;;;;;2.08;1.85;;;;;;;31.27;67.15;100732.22;4924431;28;69441;-37
2023/09/11 06:09:34;;;;;;;1.60;1.20;;;;;;;31.28;67.46;100730.34;4927091;28;66322;-37
2023/09/11 06:12:04;;;;;;;4.88;1.73;;;;;;;31.30;67.19;100722.81;4920414;28;70381;-36
2023/09/11 06:14:37;;;;;;;1.70;1.38;;;;;;;31.22;67.30;100707.69;4925786;28;65816;-37
2023/09/11 06:17:08;;;;;;;1.40;1.30;;;;;;;31.32;67.50;100715.31;4924877;28;70005;-37
2023/09/11 06:19:38;;;;;;;1.88;1.35;;;;;;;31.32;67.14;100699.03;4923810;28;65560;-39
2023/09/11 06:22:08;;;;;;;1.50;1.40;;;;;;;31.36;67.00;100695.66;4926774;28;70120;-36
2023/09/11 06:24:38;;;;;;;1.55;1.30;;;;;;;31.42;66.86;100698.53;4921632;28;65407;-36
2023/09/11 06:27:08;;;;;;;2.63;1.80;;;;;;;31.45;66.75;100704.31;4895618;28;70052;-36
2023/09/11 06:29:39;;;;;;;2.40;1.15;;;;;;;31.47;66.64;100691.34;4889674;28;66060;-38
2023/09/11 06:32:12;;;;;;;2.03;1.50;;;;;;;31.51;66.74;100687.16;4920898;28;70667;-39
2023/09/11 06:34:42;;;;;;;5.03;1.50;;;;;;;31.54;66.79;100692.09;4917861;28;65671;-37
2023/09/11 06:37:12;;;;;;;1.92;1.40;;;;;;;31.53;66.21;100685.00;4929103;28;70113;-37
2023/09/11 06:39:42;;;;;;;4.20;1.52;;;;;;;31.57;66.60;100683.50;4887215;28;66700;-38
2023/09/11 06:42:24;;;;;;;2.38;1.20;;;;;;;31.60;66.42;100691.19;4919974;28;70453;-37
2023/09/11 06:44:54;;;;;;;1.43;1.20;;;;;;;31.65;66.70;100697.78;4922809;28;66376;-36
2023/09/11 06:47:25;;;;;;;2.72;1.33;;;;;;;31.68;66.50;100697.31;4921436;28;70142;-35
2023/09/11 06:49:56;;;;;;;1.52;0.90;;;;;;;31.74;66.08;100691.00;4917533;28;65701;-36
2023/09/11 06:52:26;;;;;;;1.73;1.30;;;;;;;31.76;66.14;100683.44;4914159;28;70062;-35
2023/09/11 06:54:56;;;;;;;3.70;1.23;;;;;;;31.80;65.97;100690.91;4914026;28;65088;-36
2023/09/11 06:57:27;;;;;;;2.15;1.55;;;;;;;31.82;66.14;100693.38;4913606;28;70296;-37
2023/09/11 06:59:57;;;;;;;1.60;1.15;;;;;;;31.83;65.86;100690.44;4931176;28;66648;-38
2023/09/11 07:02:27;;;;;;;1.27;0.88;;;;;;;31.89;65.84;100694.09;4909328;28;69872;-37
2023/09/11 07:04:57;;;;;;;1.80;1.48;;;;;;;31.92;65.63;100688.25;4923088;28;66363;-35
2023/09/11 07:07:27;;;;;;;2.58;1.30;;;;;;;31.95;65.51;100692.38;4921377;28;69843;-36
2023/09/11 07:09:57;;;;;;;1.98;1.13;;;;;;;31.94;65.34;100680.72;4922194;28;65941;-36
2023/09/11 07:12:27;;;;;;;2.20;1.33;;;;;;;32.01;65.29;100689.56;4923278;28;70172;-37
2023/09/11 07:14:58;;;;;;;1.42;1.25;;;;;;;32.05;65.10;100684.50;4922529;28;66274;-37
2023/09/11 07:17:28;;;;;;;1.98;1.58;;;;;;;32.08;65.22;100678.59;4919136;28;69832;-38
2023/09/11 07:19:58;;;;;;;1.30;1.20;;;;;;;32.08;65.15;100672.34;4916345;28;66903;-38
2023/09/11 07:22:28;;;;;;;1.45;1.10;;;;;;;32.15;64.92;100682.06;4922803;28;70321;-36
2023/09/11 07:24:59;;;;;;;1.35;1.25;;;;;;;32.20;64.48;100673.19;4920840;28;66123;-36
2023/09/11 07:27:33;;;;;;;1.80;1.20;;;;;;;32.19;64.72;100671.56;4923466;28;70353;-36
2023/09/11 07:30:04;;;;;;;1.50;1.35;;;;;;;32.27;64.65;100677.47;4911989;28;65828;-37
2023/09/11 07:32:34;;;;;;;0.82;0.80;;;;;;;32.30;64.53;100672.63;4921127;28;70497;-36
2023/09/11 07:35:04;;;;;;;1.42;1.27;;;;;;;32.34;63.89;100662.94;4922566;28;66263;-36
2023/09/11 07:37:35;;;;;;;2.15;1.25;;;;;;;32.34;64.01;100655.63;4921839;28;70220;-35
2023/09/11 07:40:07;;;;;;;2.40;1.25;;;;;;;32.40;64.15;100659.28;4934948;28;66456;-36
2023/09/11 07:42:37;;;;;;;4.25;1.10;;;;;;;32.43;63.96;100656.94;4932616;28;70210;-36
2023/09/11 07:45:09;;;;;;;1.58;1.48;;;;;;;32.46;63.90;100656.50;4921916;28;66360;-37
2023/09/11 07:47:39;;;;;;;1.58;1.38;;;;;;;32.48;63.88;100654.38;4922553;28;69953;-37
2023/09/11 07:50:10;;;;;;;1.83;1.17;;;;;;;32.51;63.59;100652.22;4934198;28;65948;-37
2023/09/11 07:52:40;;;;;;;2.38;1.10;;;;;;;32.47;63.56;100635.59;4919180;28;69237;-37
2023/09/11 07:55:10;;;;;;;2.25;1.27;;;;;;;32.57;63.50;100662.97;4921915;28;65980;-36
2023/09/11 07:57:41;;;;;;;1.52;1.10;;;;;;;32.53;63.54;100631.09;4922453;28;70376;-37
2023/09/11 08:00:11;;;;;;;1.30;1.13;;;;;;;32.63;63.08;100644.91;4919040;28;66358;-38
2023/09/11 08:02:41;;;;;;;1.08;0.93;;;;;;;32.64;63.00;100641.94;4930861;28;71169;-36
2023/09/11 08:05:12;;;;;;;1.30;1.20;;;;;;;32.69;63.01;100646.66;4921651;28;66571;-36
2023/09/11 08:07:42;;;;;;;1.60;1.38;;;;;;;32.72;62.86;100648.91;4920623;28;70294;-37
2023/09/11 08:10:12;;;;;;;2.67;1.02;;;;;;;32.75;62.74;100651.13;4934160;28;65402;-37
2023/09/11 08:12:42;;;;;;;1.63;1.33;;;;;;;32.77;62.77;100643.59;4933156;28;70735;-36
2023/09/11 08:15:14;;;;;;;1.85;1.33;;;;;;;32.80;62.48;100645.81;4921450;28;66765;-37
2023/09/11 08:17:44;;;;;;;1.50;1.30;;;;;;;32.81;62.01;100646.66;4921871;28;69521;-36
2023/09/11 08:20:15;;;;;;;1.60;1.50;;;;;;;32.84;62.24;100646.97;4920707;28;66132;-36
2023/09/11 08:22:45;;;;;;;1.80;1.70;;;;;;;32.66;62.30;100611.84;4921310;28;69468;-37
2023/09/11 08:25:15;;;;;;;1.98;1.88;;;;;;;32.87;61.98;100642.97;4928494;28;65674;-36
2023/09/11 08:27:46;;;;;;;2.22;2.03;;;;;;;32.89;62.04;100643.56;4924966;28;70071;-36
2023/09/11 08:30:16;;;;;;;4.05;1.83;;;;;;;32.82;62.21;100643.69;4920990;28;66111;-37
2023/09/11 08:32:46;;;;;;;2.33;1.98;;;;;;;32.85;61.73;100637.78;4923762;28;69574;-36
2023/09/11 08:35:16;;;;;;;3.03;2.42;;;;;;;32.93;61.56;100650.16;4921653;28;66386;-36
2023/09/11 08:37:46;;;;;;;3.58;2.47;;;;;;;32.94;61.57;100646.38;4920902;28;69593;-37
2023/09/11 08:40:17;;;;;;;3.38;3.15;;;;;;;32.97;61.49;100639.66;4931716;28;66559;-37
2023/09/11 08:42:47;;;;;;;3.25;3.00;;;;;;;32.91;61.63;100636.81;4920880;28;69859;-36
2023/09/11 08:45:17;;;;;;;3.65;3.00;;;;;;;32.97;61.08;100645.91;4921041;28;66247;-37
2023/09/11 08:47:48;;;;;;;3.45;3.25;;;;;;;32.94;60.90;100641.78;4923536;28;69640;-35
2023/09/11 08:50:22;;;;;;;3.25;3.03;;;;;;;33.01;60.63;100646.28;4925942;28;66538;-39
2023/09/11 08:52:54;;;;;;;4.10;3.80;;;;;;;33.03;61.04;100649.59;4930535;28;70367;-39
2023/09/11 08:55:27;;;;;;;4.10;3.80;;;;;;;33.04;60.84;100645.78;4925519;28;66755;-37
2023/09/11 08:58:03;;;;;;;4.72;4.38;;;;;;;33.05;60.18;100647.47;4928258;28;70713;-36
2023/09/11 09:00:33;;;;;;;4.70;4.40;;;;;;;33.05;60.33;100642.03;4929002;28;65822;-37
2023/09/11 09:03:05;;;;;;;6.30;5.00;;;;;;;33.07;60.60;100642.59;4926309;28;70100;-37
2023/09/11 09:05:35;;;;;;;;;;;;;;;32.83;59.60;100648.06;4931527;28;66070;-36
2023/09/11 09:08:07;;;;;;;5.47;5.07;;;;;;;32.98;60.29;100631.25;4933794;28;70736;-37
2023/09/11 09:10:37;;;;;;;;;;;;;;;32.81;59.45;100647.47;4929827;28;65633;-37
2023/09/11 09:13:09;;;;;;;6.57;6.03;;;;;;;33.06;60.21;100638.22;4923894;28;69385;-38
2023/09/11 09:15:41;;;;;;;7.32;5.57;;;;;;;32.98;59.33;100633.97;4930739;28;66573;-37
2023/09/11 09:18:11;;;;;;;6.45;5.95;;;;;;;32.99;60.08;100632.06;4915010;28;70624;-35
2023/09/11 09:20:42;;;;;;;6.30;5.90;;;;;;;33.07;60.11;100645.31;4931935;28;66329;-40
2023/09/11 09:23:13;;;;;;;7.10;6.20;;;;;;;32.71;58.82;100615.50;4907046;28;68949;-37
2023/09/11 09:25:43;;;;;;;7.03;6.63;;;;;;;32.77;61.28;100648.19;4920870;28;65429;-37
2023/09/11 09:28:29;;;;;;;6.45;6.05;;;;;;;32.65;62.21;100648.19;4917672;28;70254;-38
2023/09/11 09:31:03;;;;;;;7.75;6.93;;;;;;;32.74;62.67;100646.78;4914749;28;66160;-37
2023/09/11 09:33:33;;;;;;;7.22;6.72;;;;;;;32.82;62.69;100643.69;4930887;28;70525;-38
2023/09/11 09:36:03;;;;;;;7.43;6.93;;;;;;;32.89;62.55;100649.81;4919651;28;66651;-37
2023/09/11 09:38:33;;;;;;;7.38;6.90;;;;;;;32.82;62.91;100651.84;4917199;28;70317;-38
2023/09/11 09:41:10;;;;;;;6.63;6.22;;;;;;;32.79;62.68;100644.19;4941080;28;66357;-40
2023/09/11 09:43:50;;;;;;;7.28;6.68;;;;;;;32.90;62.47;100662.34;4907912;28;70314;-37
2023/09/11 09:46:22;;;;;;;6.68;6.20;;;;;;;32.69;62.50;100628.47;4920753;28;67112;-38
2023/09/11 09:48:53;;;;;;;7.43;6.93;;;;;;;32.81;63.37;100661.03;4916102;28;70170;-39
2023/09/11 09:51:28;;;;;;;7.35;6.85;;;;;;;32.82;63.66;100664.59;4904294;28;66213;-38
2023/09/11 09:53:58;;;;;;;6.95;6.40;;;;;;;32.84;63.83;100668.72;4920045;28;70750;-37
2023/09/11 09:56:28;;;;;;;7.18;6.60;;;;;;;32.80;63.85;100662.13;4934115;28;66101;-39
2023/09/11 09:59:01;;;;;;;6.88;6.45;;;;;;;32.90;63.50;100675.94;4923596;28;70405;-38
2023/09/11 10:01:43;;;;;;;7.03;6.53;;;;;;;32.85;64.11;100675.81;4895639;28;66006;-38
2023/09/11 10:04:16;;;;;;;6.28;5.88;;;;;;;32.85;64.21;100670.38;4922737;28;70315;-38
2023/09/11 10:06:57;;;;;;;6.10;5.70;;;;;;;32.85;64.37;100683.97;4916383;28;66543;-38
2023/09/11 10:09:27;;;;;;;6.65;6.20;;;;;;;32.89;63.72;100679.69;4922824;28;70580;-39
2023/09/11 10:12:03;;;;;;;5.70;5.30;;;;;;;32.85;64.39;100686.69;4916148;28;66407;-38
2023/09/11 10:14:33;;;;;;;7.30;6.70;;;;;;;32.84;64.24;100685.00;4883780;28;68984;-39
2023/09/11 10:17:04;;;;;;;5.75;5.35;;;;;;;32.85;64.18;100697.56;4913598;28;65779;-38
2023/09/11 10:19:37;;;;;;;5.97;5.57;;;;;;;32.49;64.21;100642.44;4922347;28;70131;-38
2023/09/11 10:22:07;;;;;;;6.03;5.55;;;;;;;32.81;64.22;100692.81;4924141;28;66483;-38
2023/09/11 10:24:37;;;;;;;6.70;5.53;;;;;;;32.85;64.20;100700.28;4921643;28;70380;-40
2023/09/11 10:27:07;;;;;;;6.78;6.30;;;;;;;32.78;64.38;100696.84;4926019;28;66535;-37
2023/09/11 10:29:51;;;;;;;9.70;8.93;;;;;;;32.34;62.92;100641.22;4920486;28;70489;-38
2023/09/11 10:32:26;;;;;;;8.27;7.57;;;;;;;32.62;64.23;100695.66;4922051;28;65813;-37
2023/09/11 10:34:56;;;;;;;8.48;7.85;;;;;;;32.66;64.46;100704.19;4920869;28;70595;-38
2023/09/11 10:37:29;;;;;;;10.48;9.52;;;;;;;32.53;63.42;100707.13;4924672;28;65512;-37
2023/09/11 10:40:02;;;;;;;11.60;10.60;;;;;;;32.59;62.70;100708.91;4918915;28;70209;-36
2023/09/11 10:42:33;;;;;;;11.02;9.95;;;;;;;32.51;63.67;100707.34;4923156;28;65369;-38
2023/09/11 10:45:03;;;;;;;12.43;10.02;;;;;;;32.55;62.96;100696.88;4920160;28;70216;-37
2023/09/11 10:47:48;;;;;;;10.85;9.88;;;;;;;32.57;63.48;100705.56;4926250;28;66205;-36
2023/09/11 10:50:19;;;;;;;11.07;9.85;;;;;;;32.53;63.88;100713.38;4918809;28;70157;-39
2023/09/11 10:52:54;;;;;;;11.35;10.20;;;;;;;31.78;64.13;100608.09;4913482;28;66163;-36
2023/09/11 10:55:25;;;;;;;9.95;9.15;;;;;;;32.44;64.04;100698.47;4916238;28;70281;-39
2023/09/11 10:57:59;;;;;;;10.38;9.27;;;;;;;32.44;64.78;100707.44;4912883;28;66777;-38
2023/09/11 11:00:29;;;;;;;12.00;9.50;;;;;;;32.63;64.01;100710.91;4919878;28;70658;-40
2023/09/11 11:02:59;;;;;;;14.15;9.40;;;;;;;32.69;63.80;100709.97;4919285;28;66587;-38
2023/09/11 11:05:31;;;;;;;9.88;8.98;;;;;;;32.74;63.33;100705.72;4903938;28;69956;-39
2023/09/11 11:08:02;;;;;;;9.80;8.77;;;;;;;32.77;63.19;100710.69;4922211;28;65463;-37
2023/09/11 11:10:32;;;;;;;9.23;8.40;;;;;;;32.78;63.04;100707.69;4901528;28;70395;-37
2023/09/11 11:13:07;;;;;;;8.48;7.88;;;;;;;32.20;63.03;100618.91;4914021;28;66211;-39
2023/09/11 11:15:40;;;;;;;8.77;8.00;;;;;;;32.78;63.08;100720.47;4928317;28;43221;-37
2023/09/11 11:18:25;;;;;;;8.77;8.07;;;;;;;32.71;63.08;100717.88;4894355;28;65388;-38
2023/09/11 11:21:04;;;;;;;8.88;8.18;;;;;;;32.72;63.38;100731.22;4911215;28;69393;-37
2023/09/11 11:23:57;;;;;;;8.95;8.25;;;;;;;32.65;63.60;100718.81;4892730;28;65771;-46
2023/09/11 11:26:30;;;;;;;9.02;8.15;;;;;;;32.71;63.51;100726.84;4922587;28;70481;-37
2023/09/11 11:29:01;;;;;;;8.38;7.80;;;;;;;32.71;63.08;100728.75;4917223;28;65563;-37
2023/09/11 11:31:35;;;;;;;8.30;7.70;;;;;;;32.70;63.58;100737.94;4895966;28;69286;-39
2023/09/11 11:34:07;;;;;;;9.10;7.38;;;;;;;32.70;63.74;100732.50;4869224;29;66247;-37
2023/09/11 11:36:40;;;;;;;8.17;7.40;;;;;;;32.62;63.53;100735.56;4919223;28;71660;-38
2023/09/11 11:39:10;;;;;;;6.78;6.38;;;;;;;32.68;63.60;100750.91;4915963;28;66283;-39
2023/09/11 11:41:41;;;;;;;7.07;6.57;;;;;;;32.68;63.78;100750.91;4919543;28;70409;-41
2023/09/11 11:44:12;;;;;;;7.93;7.20;;;;;;;32.67;63.80;100754.72;4914056;28;65796;-39